Time;durP1;ratioP1;P1;durP2;ratioP2;P2;SDS_P1;SDS_P2;PMS_P1;PMS_P2;Temp;Humidity;BMP_temperature;BMP_pressure;BME280_temperature;BME280_humidity;BME280_pressure;Samples;Min_cycle;Max_cycle;Signal;HPM_P1;HPM_P2
2021/10/08 00:01:57;;;;;;;58.07;26.07;;;;;;;3.54;100.00;101703.05;1747008;82;21567;-75
2021/10/08 00:04:24;;;;;;;33.73;16.03;;;;;;;3.53;100.00;101702.20;1747131;82;21006;-76
2021/10/08 00:06:51;;;;;;;25.30;9.23;;;;;;;3.53;100.00;101706.22;1746970;82;21046;-75
2021/10/08 00:09:17;;;;;;;30.73;10.60;;;;;;;3.53;100.00;101707.55;1746963;82;21054;-76
2021/10/08 00:11:45;;;;;;;24.47;10.57;;;;;;;3.54;100.00;101703.05;1746952;82;21066;-75
2021/10/08 00:14:11;;;;;;;95.87;44.77;;;;;;;3.57;100.00;101711.77;1747088;82;21034;-74
2021/10/08 00:16:38;;;;;;;49.63;23.03;;;;;;;3.56;100.00;101696.69;1747085;82;21066;-77
2021/10/08 00:19:05;;;;;;;39.97;18.47;;;;;;;3.59;100.00;101694.30;1746995;82;21046;-76
2021/10/08 00:21:32;;;;;;;29.17;13.43;;;;;;;3.60;100.00;101697.38;1746831;82;21036;-76
2021/10/08 00:23:59;;;;;;;58.33;28.17;;;;;;;3.60;100.00;101696.05;1747184;82;21014;-76
2021/10/08 00:26:26;;;;;;;32.67;16.60;;;;;;;3.61;100.00;101691.95;1746921;82;21027;-75
2021/10/08 00:28:53;;;;;;;28.77;13.10;;;;;;;3.63;100.00;101697.67;1747229;82;21066;-76
2021/10/08 00:31:20;;;;;;;31.73;12.73;;;;;;;3.67;100.00;101696.57;1747035;82;21117;-77
2021/10/08 00:33:47;;;;;;;27.50;10.67;;;;;;;3.68;100.00;101697.80;1747177;82;21019;-76
2021/10/08 00:36:13;;;;;;;22.13;8.50;;;;;;;3.71;100.00;101690.94;1747116;82;21023;-75
2021/10/08 00:38:40;;;;;;;24.90;9.80;;;;;;;3.76;100.00;101697.38;1744289;82;21029;-76
2021/10/08 00:41:08;;;;;;;26.87;10.47;;;;;;;3.82;100.00;101702.86;1734424;82;21077;-75
2021/10/08 00:43:35;;;;;;;24.53;9.83;;;;;;;3.86;100.00;101695.03;1734146;82;21480;-75
2021/10/08 00:46:02;;;;;;;18.33;8.03;;;;;;;3.91;100.00;101696.98;1736436;82;20983;-76
2021/10/08 00:48:29;;;;;;;25.03;11.23;;;;;;;3.98;100.00;101688.98;1738801;82;21023;-76
2021/10/08 00:50:56;;;;;;;34.30;14.70;;;;;;;4.03;100.00;101690.92;1738606;82;21019;-75
2021/10/08 00:53:24;;;;;;;26.97;11.47;;;;;;;4.08;100.00;101686.17;1738870;82;21059;-76
2021/10/08 00:55:53;;;;;;;30.63;14.07;;;;;;;4.11;100.00;101684.66;1738748;82;21038;-75
2021/10/08 00:58:21;;;;;;;21.53;8.90;;;;;;;4.16;100.00;101687.94;1739222;82;21046;-75
2021/10/08 01:00:50;;;;;;;18.70;7.30;;;;;;;4.22;100.00;101683.18;1739100;82;21022;-75
2021/10/08 01:03:18;;;;;;;18.00;7.50;;;;;;;4.25;100.00;101681.19;1738930;82;21491;-75
2021/10/08 01:05:45;;;;;;;19.73;7.60;;;;;;;4.29;100.00;101692.09;1739110;82;21034;-76
2021/10/08 01:08:12;;;;;;;17.70;6.73;;;;;;;4.34;100.00;101681.13;1738979;82;21163;-76
2021/10/08 01:10:40;;;;;;;19.13;6.30;;;;;;;4.36;100.00;101680.55;1738941;82;21046;-76
2021/10/08 01:13:08;;;;;;;20.93;7.73;;;;;;;4.41;100.00;101677.13;1739202;82;21015;-75
2021/10/08 01:15:36;;;;;;;14.53;5.70;;;;;;;4.44;100.00;101675.58;1739176;82;21505;-75
2021/10/08 01:18:03;;;;;;;111.43;39.57;;;;;;;4.46;100.00;101672.36;1739247;82;21489;-74
2021/10/08 01:20:30;;;;;;;52.80;19.03;;;;;;;4.46;100.00;101676.38;1739143;82;21066;-76
2021/10/08 01:22:59;;;;;;;163.60;57.27;;;;;;;4.49;100.00;101670.81;1735864;82;21038;-77
2021/10/08 01:25:31;;;;;;;59.60;23.23;;;;;;;4.51;100.00;101672.92;1739131;82;21032;-79
2021/10/08 01:27:58;;;;;;;132.13;49.87;;;;;;;4.53;100.00;101673.72;1739345;82;21022;-76
2021/10/08 01:30:26;;;;;;;82.07;30.27;;;;;;;4.56;100.00;101674.84;1735672;82;21019;-77
2021/10/08 01:32:53;;;;;;;438.10;140.00;;;;;;;4.59;100.00;101676.98;1739463;82;21015;-76
2021/10/08 01:35:20;;;;;;;220.33;70.87;;;;;;;4.62;100.00;101679.45;1739338;82;21089;-76
2021/10/08 01:37:48;;;;;;;272.97;89.73;;;;;;;4.63;100.00;101679.37;1739164;82;21031;-75
2021/10/08 01:40:15;;;;;;;227.30;78.97;;;;;;;4.64;100.00;101671.73;1726055;82;21472;-76
2021/10/08 01:42:44;;;;;;;79.23;29.07;;;;;;;4.65;100.00;101670.75;1724504;83;21002;-76
2021/10/08 01:45:13;;;;;;;88.47;31.03;;;;;;;4.67;100.00;101672.86;1728912;83;21571;-73
2021/10/08 01:47:40;;;;;;;38.20;13.53;;;;;;;4.68;100.00;101670.58;1684267;84;21058;-75
2021/10/08 01:50:09;;;;;;;47.77;18.73;;;;;;;4.73;100.00;101670.31;1689142;84;20996;-77
2021/10/08 01:52:38;;;;;;;59.77;26.93;;;;;;;4.76;100.00;101674.12;1689299;85;21050;-75
2021/10/08 01:55:06;;;;;;;36.37;14.57;;;;;;;4.79;100.00;101669.06;1706490;84;21046;-76
2021/10/08 01:57:34;;;;;;;41.17;17.93;;;;;;;4.81;100.00;101667.15;1689342;85;21536;-75
2021/10/08 02:00:00;;;;;;;33.03;14.43;;;;;;;4.82;100.00;101678.27;1689370;85;21552;-75
2021/10/08 02:02:27;;;;;;;24.73;10.27;;;;;;;4.85;100.00;101670.91;1689495;85;21062;-77
2021/10/08 02:04:54;;;;;;;19.70;7.27;;;;;;;4.86;100.00;101680.64;1667675;85;21055;-78
2021/10/08 02:07:21;;;;;;;15.27;5.97;;;;;;;4.88;100.00;101675.20;1689645;85;21015;-74
2021/10/08 02:09:49;;;;;;;20.63;7.43;;;;;;;4.92;100.00;101678.06;1680750;84;21010;-77
2021/10/08 02:12:16;;;;;;;15.83;5.63;;;;;;;4.93;100.00;101675.30;1709006;84;21010;-76
2021/10/08 02:14:43;;;;;;;14.20;5.20;;;;;;;4.98;100.00;101678.19;1708755;84;21065;-76
2021/10/08 02:17:10;;;;;;;15.70;6.03;;;;;;;5.00;100.00;101672.25;1708684;84;21116;-76
2021/10/08 02:19:37;;;;;;;13.17;4.83;;;;;;;5.02;100.00;101675.69;1708643;84;21089;-75
2021/10/08 02:22:04;;;;;;;11.97;4.93;;;;;;;5.05;100.00;101676.84;1708776;84;20974;-75
2021/10/08 02:24:32;;;;;;;17.80;6.30;;;;;;;5.08;100.00;101680.20;1708617;84;21029;-77
2021/10/08 02:27:00;;;;;;;46.47;23.00;;;;;;;5.10;100.00;101684.13;1708551;84;21535;-74
2021/10/08 02:29:29;;;;;;;15.30;5.50;;;;;;;5.11;100.00;101680.48;1708854;84;21113;-76
2021/10/08 02:31:56;;;;;;;11.10;4.73;;;;;;;5.14;100.00;101672.25;1708896;84;21527;-75
2021/10/08 02:34:24;;;;;;;10.70;4.50;;;;;;;5.15;100.00;101686.02;1708714;84;21348;-76
2021/10/08 02:36:50;;;;;;;19.67;7.40;;;;;;;5.18;100.00;101693.03;1708817;84;21037;-75
2021/10/08 02:39:17;;;;;;;58.90;21.10;;;;;;;5.18;100.00;101699.24;1704491;84;21551;-75
2021/10/08 02:41:44;;;;;;;32.63;11.07;;;;;;;5.19;100.00;101697.42;1699658;84;21037;-76
2021/10/08 02:44:10;;;;;;;26.20;8.20;;;;;;;5.20;100.00;101697.81;1699536;84;21037;-76
2021/10/08 02:46:39;;;;;;;20.83;6.80;;;;;;;5.19;100.00;101693.39;1708318;84;20994;-76
2021/10/08 02:49:06;;;;;;;22.50;6.60;;;;;;;5.20;100.00;101695.98;1711698;84;21580;-76
2021/10/08 02:51:33;;;;;;;20.40;6.80;;;;;;;5.21;100.00;101694.19;1711772;84;21069;-77
2021/10/08 02:54:01;;;;;;;39.10;15.57;;;;;;;5.20;100.00;101700.00;1711833;84;21032;-75
2021/10/08 02:56:28;;;;;;;21.60;7.40;;;;;;;5.21;100.00;101697.72;1685486;84;20998;-76
2021/10/08 02:58:55;;;;;;;30.60;11.20;;;;;;;5.21;100.00;101691.02;1711529;84;21041;-76
2021/10/08 03:01:22;;;;;;;21.90;7.93;;;;;;;5.21;100.00;101698.21;1711760;84;21084;-76
2021/10/08 03:03:49;;;;;;;26.83;7.03;;;;;;;5.21;100.00;101699.55;1711375;84;21535;-76
2021/10/08 03:06:16;;;;;;;14.00;4.73;;;;;;;5.19;100.00;101700.98;1711905;84;21013;-77
2021/10/08 03:08:45;;;;;;;20.70;5.40;;;;;;;5.19;100.00;101699.64;1711845;83;21069;-76
2021/10/08 03:11:12;;;;;;;24.50;9.40;;;;;;;5.20;100.00;101703.17;1711993;84;21033;-77
2021/10/08 03:13:41;;;;;;;16.80;6.87;;;;;;;5.19;100.00;101700.98;1712262;84;21112;-77
2021/10/08 03:16:07;;;;;;;37.70;10.47;;;;;;;5.19;100.00;101713.05;1712155;84;21018;-76
2021/10/08 03:18:34;;;;;;;26.37;7.80;;;;;;;5.18;100.00;101711.31;1712258;84;21026;-78
2021/10/08 03:21:04;;;;;;;17.40;5.97;;;;;;;5.19;100.00;101709.48;1712048;84;21065;-78
2021/10/08 03:23:31;;;;;;;26.07;9.57;;;;;;;5.18;100.00;101719.36;1712040;84;21034;-75
2021/10/08 03:25:58;;;;;;;24.10;9.70;;;;;;;5.19;100.00;101710.38;1712090;84;21487;-76
2021/10/08 03:28:25;;;;;;;25.07;10.27;;;;;;;5.18;100.00;101708.63;1711916;84;21049;-76
2021/10/08 03:30:53;;;;;;;149.93;46.87;;;;;;;5.18;100.00;101711.80;1712273;84;20970;-77
2021/10/08 03:33:19;;;;;;;35.03;11.47;;;;;;;5.17;100.00;101706.92;1712010;84;21634;-76
2021/10/08 03:35:47;;;;;;;125.17;51.67;;;;;;;5.18;100.00;101712.66;1712102;84;21097;-77
2021/10/08 03:38:15;;;;;;;80.20;32.20;;;;;;;5.17;100.00;101715.42;1711666;84;21073;-75
2021/10/08 03:40:47;;;;;;;61.37;20.80;;;;;;;5.17;100.00;101703.36;1696704;85;21128;-76
2021/10/08 03:43:13;;;;;;;35.37;11.80;;;;;;;5.17;100.00;101714.97;1701152;82;21022;-77
2021/10/08 03:45:49;;;;;;;30.87;11.20;;;;;;;5.17;100.00;101706.92;1680748;85;20983;-77
2021/10/08 03:50:52;;;;;;;23.97;6.43;;;;;;;5.19;100.00;101706.34;1631204;88;21147;-78
2021/10/08 03:53:19;;;;;;;43.90;9.07;;;;;;;5.19;100.00;101701.44;1659655;86;21004;-75
2021/10/08 03:55:46;;;;;;;23.03;5.30;;;;;;;5.20;100.00;101706.71;1659749;86;21064;-78
2021/10/08 03:58:12;;;;;;;26.87;6.80;;;;;;;5.19;100.00;101702.33;1659839;86;21529;-76
2021/10/08 04:00:41;;;;;;;20.63;7.50;;;;;;;5.20;100.00;101701.34;1659555;86;21087;-76
2021/10/08 04:03:09;;;;;;;28.53;8.93;;;;;;;5.21;100.00;101704.91;1659803;85;21048;-77
2021/10/08 04:05:36;;;;;;;36.70;13.13;;;;;;;5.21;100.00;101701.74;1659212;86;21106;-77
2021/10/08 04:08:04;;;;;;;29.37;9.70;;;;;;;5.22;100.00;101720.03;1680524;84;21071;-75
2021/10/08 04:10:33;;;;;;;20.87;6.00;;;;;;;5.21;100.00;101711.63;1680730;85;21034;-79
2021/10/08 04:13:00;;;;;;;26.33;6.93;;;;;;;5.22;100.00;101711.98;1680735;85;21142;-76
2021/10/08 04:15:27;;;;;;;17.40;6.03;;;;;;;5.23;100.00;101715.91;1680979;85;21062;-75
2021/10/08 04:17:54;;;;;;;24.93;5.70;;;;;;;5.25;100.00;101711.80;1680901;85;21023;-77
2021/10/08 04:20:21;;;;;;;45.13;10.43;;;;;;;5.25;100.00;101712.66;1680955;85;21074;-75
2021/10/08 04:22:48;;;;;;;43.03;17.07;;;;;;;5.26;100.00;101717.56;1681051;85;21540;-76
2021/10/08 04:25:16;;;;;;;38.20;13.83;;;;;;;5.27;100.00;101719.27;1680986;85;21034;-75
2021/10/08 04:27:43;;;;;;;52.97;16.27;;;;;;;5.28;100.00;101721.86;1721237;82;21045;-76
2021/10/08 04:30:10;;;;;;;39.63;9.03;;;;;;;5.29;100.00;101724.94;1754398;82;21065;-76
2021/10/08 04:32:39;;;;;;;20.17;6.10;;;;;;;5.29;100.00;101727.63;1754196;82;21073;-75
2021/10/08 04:35:07;;;;;;;53.60;11.03;;;;;;;5.31;100.00;101732.41;1754441;82;21045;-75
2021/10/08 04:37:35;;;;;;;76.57;29.70;;;;;;;5.33;100.00;101726.95;1754349;82;21042;-76
2021/10/08 04:40:02;;;;;;;99.67;37.70;;;;;;;5.34;100.00;101732.67;1754647;81;21090;-74
2021/10/08 04:42:29;;;;;;;66.23;19.93;;;;;;;5.36;100.00;101739.30;1754394;82;21559;-74
2021/10/08 04:44:56;;;;;;;43.43;16.57;;;;;;;5.36;100.00;101733.44;1754973;81;21015;-74
2021/10/08 04:47:22;;;;;;;57.57;17.30;;;;;;;5.38;100.00;101735.55;1779504;81;21084;-74
2021/10/08 04:49:51;;;;;;;102.10;33.43;;;;;;;5.39;100.00;101740.45;1779031;81;21137;-75
2021/10/08 04:52:19;;;;;;;221.57;64.60;;;;;;;5.41;100.00;101739.38;1779628;81;21005;-75
2021/10/08 04:54:46;;;;;;;178.90;61.93;;;;;;;5.41;100.00;101738.05;1779473;81;21676;-78
2021/10/08 04:57:13;;;;;;;129.27;37.47;;;;;;;5.42;100.00;101741.13;1779371;81;21017;-75
2021/10/08 04:59:40;;;;;;;196.37;54.73;;;;;;;5.43;100.00;101739.29;1779401;81;21136;-76
2021/10/08 05:02:07;;;;;;;155.10;46.80;;;;;;;5.43;100.00;101740.14;1779333;81;21621;-76
2021/10/08 05:04:35;;;;;;;84.27;28.30;;;;;;;5.44;100.00;101742.37;1779273;81;21530;-76
2021/10/08 05:07:02;;;;;;;81.47;19.70;;;;;;;5.43;100.00;101744.16;1779480;81;21001;-76
2021/10/08 05:09:30;;;;;;;44.80;12.47;;;;;;;5.44;100.00;101745.91;1770037;81;21646;-77
2021/10/08 05:11:58;;;;;;;39.30;8.70;;;;;;;5.46;100.00;101749.84;1765728;81;21061;-79
2021/10/08 05:14:26;;;;;;;34.77;8.87;;;;;;;5.47;100.00;101747.52;1765423;81;21613;-72
2021/10/08 05:16:53;;;;;;;45.93;12.07;;;;;;;5.48;100.00;101750.60;1765259;81;21511;-73
2021/10/08 05:19:20;;;;;;;63.13;16.67;;;;;;;5.54;100.00;101757.39;1751885;81;20998;-72
2021/10/08 05:21:50;;;;;;;42.17;10.73;;;;;;;5.57;100.00;101762.09;1728165;83;21441;-72
2021/10/08 05:24:18;;;;;;;45.23;11.80;;;;;;;5.61;100.00;101762.30;1728749;83;20994;-73
2021/10/08 05:26:45;;;;;;;66.20;12.73;;;;;;;5.65;100.00;101762.48;1735357;83;21009;-73
2021/10/08 05:29:12;;;;;;;81.30;13.60;;;;;;;5.68;100.00;101762.30;1730610;83;20986;-73
2021/10/08 05:31:39;;;;;;;63.37;15.93;;;;;;;5.72;100.00;101772.36;1735535;83;20979;-73
2021/10/08 05:34:06;;;;;;;73.83;15.60;;;;;;;5.76;100.00;101774.36;1729996;83;20990;-72
2021/10/08 05:36:34;;;;;;;56.50;15.00;;;;;;;5.80;100.00;101776.73;1726201;83;20994;-71
2021/10/08 05:39:03;;;;;;;27.93;6.67;;;;;;;5.84;100.00;101773.38;1730560;83;20998;-75
2021/10/08 05:41:31;;;;;;;43.70;9.27;;;;;;;5.87;100.00;101771.84;1732938;83;21045;-75
2021/10/08 05:43:58;;;;;;;51.53;10.10;;;;;;;5.88;100.00;101774.92;1723571;83;21062;-75
2021/10/08 05:46:26;;;;;;;58.70;9.03;;;;;;;5.91;100.00;101767.99;1708342;83;21003;-73
2021/10/08 05:48:53;;;;;;;65.97;11.23;;;;;;;5.96;100.00;101779.83;1683660;85;21006;-75
2021/10/08 05:51:20;;;;;;;56.40;10.03;;;;;;;5.98;100.00;101779.23;1679705;85;21491;-74
2021/10/08 05:53:48;;;;;;;41.03;8.60;;;;;;;6.03;100.00;101777.13;1707900;84;21025;-73
2021/10/08 05:56:15;;;;;;;43.03;9.97;;;;;;;6.05;100.00;101780.08;1706100;84;21046;-72
2021/10/08 05:58:42;;;;;;;30.20;8.13;;;;;;;6.08;100.00;101778.55;1705963;84;21444;-71
2021/10/08 06:01:09;;;;;;;39.57;10.53;;;;;;;6.11;100.00;101780.19;1702683;84;20997;-72
2021/10/08 06:03:37;;;;;;;46.47;11.23;;;;;;;6.14;100.00;101777.28;1708328;84;21041;-71
2021/10/08 06:06:04;;;;;;;54.77;9.90;;;;;;;6.18;100.00;101777.94;1709614;84;21030;-75
2021/10/08 06:08:31;;;;;;;35.83;6.87;;;;;;;6.24;100.00;101771.69;1704093;84;21216;-74
2021/10/08 06:10:58;;;;;;;43.87;8.27;;;;;;;6.32;100.00;101775.23;1704910;84;21034;-75
2021/10/08 06:13:25;;;;;;;58.47;10.60;;;;;;;6.35;100.00;101776.36;1703402;84;21059;-76
2021/10/08 06:15:54;;;;;;;43.50;9.17;;;;;;;6.38;100.00;101782.03;1703131;84;21114;-72
2021/10/08 06:18:21;;;;;;;39.27;9.47;;;;;;;6.42;100.00;101776.33;1702959;84;21055;-72
2021/10/08 06:20:48;;;;;;;49.63;11.07;;;;;;;6.49;100.00;101773.25;1703333;84;21040;-71
2021/10/08 06:23:16;;;;;;;48.77;10.67;;;;;;;6.59;100.00;101781.09;1703332;84;21068;-70
2021/10/08 06:25:43;;;;;;;50.00;10.13;;;;;;;6.70;100.00;101780.36;1703219;84;21084;-71
2021/10/08 06:28:10;;;;;;;69.20;12.50;;;;;;;6.78;100.00;101784.26;1703130;84;21123;-72
2021/10/08 06:30:37;;;;;;;65.10;12.67;;;;;;;6.87;100.00;101772.48;1703266;84;21000;-71
2021/10/08 06:33:04;;;;;;;79.43;13.97;;;;;;;6.94;100.00;101773.78;1702926;84;21052;-71
2021/10/08 06:35:32;;;;;;;91.27;16.90;;;;;;;7.03;100.00;101772.68;1703087;84;21498;-71
2021/10/08 06:38:00;;;;;;;27.30;5.57;;;;;;;7.13;100.00;101768.86;1703099;84;21836;-71
2021/10/08 06:40:28;;;;;;;62.23;12.33;;;;;;;7.21;100.00;101765.16;1703394;84;21042;-71
2021/10/08 06:42:56;;;;;;;60.00;9.67;;;;;;;7.27;100.00;101771.09;1736233;82;21516;-72
2021/10/08 06:45:37;;;;;;;69.87;11.97;;;;;;;7.31;100.00;101765.85;1736936;82;21018;-72
2021/10/08 06:48:05;;;;;;;31.17;6.03;;;;;;;7.32;100.00;101764.89;1748776;82;21032;-74
2021/10/08 06:50:35;;;;;;;51.13;10.77;;;;;;;7.39;100.00;101771.08;1747593;82;21035;-73
2021/10/08 06:53:02;;;;;;;43.73;8.33;;;;;;;7.46;100.00;101775.55;1758786;80;20947;-72
2021/10/08 06:55:29;;;;;;;80.33;12.67;;;;;;;7.54;100.00;101761.07;1729813;83;21465;-72
2021/10/08 06:57:56;;;;;;;54.37;9.97;;;;;;;7.66;100.00;101759.81;1707739;82;21041;-73
2021/10/08 07:00:24;;;;;;;36.83;8.10;;;;;;;7.82;100.00;101770.34;1723726;82;21046;-72
2021/10/08 07:02:52;;;;;;;76.03;13.73;;;;;;;8.04;100.00;101770.50;1748743;82;21014;-72
2021/10/08 07:05:23;;;;;;;68.90;12.40;;;;;;;8.18;100.00;101769.00;1748482;82;21018;-72
2021/10/08 07:07:51;;;;;;;38.57;7.97;;;;;;;8.30;100.00;101763.16;1737148;81;21484;-72
2021/10/08 07:10:19;;;;;;;47.17;11.70;;;;;;;8.47;100.00;101763.80;1741748;82;21027;-73
2021/10/08 07:12:47;;;;;;;33.33;7.50;;;;;;;8.58;100.00;101762.98;1754058;82;21042;-72
2021/10/08 07:15:18;;;;;;;36.23;8.17;;;;;;;8.68;100.00;101767.56;1738215;82;21547;-71
2021/10/08 07:17:49;;;;;;;71.60;12.97;;;;;;;8.78;100.00;101764.16;1737086;81;21058;-70
2021/10/08 07:20:29;;;;;;;37.30;8.53;;;;;;;8.86;100.00;101765.28;1624983;86;21078;-74
2021/10/08 07:22:58;;;;;;;62.43;11.85;;;;;;;8.94;100.00;101771.43;1617150;87;21698;-70
2021/10/08 07:25:28;;;;;;;98.67;16.47;;;;;;;8.99;100.00;101762.50;1616767;87;21517;-71
2021/10/08 07:27:55;;;;;;;50.70;9.57;;;;;;;9.03;100.00;101749.63;1610463;87;21535;-69
2021/10/08 07:30:22;;;;;;;35.70;7.07;;;;;;;9.05;100.00;101754.44;1621327;87;21472;-72
2021/10/08 07:32:49;;;;;;;31.53;7.30;;;;;;;9.01;100.00;101747.55;1594974;88;21086;-73
2021/10/08 07:35:16;;;;;;;36.70;10.13;;;;;;;8.99;100.00;101746.31;1617671;88;21053;-73
2021/10/08 07:37:43;;;;;;;48.57;11.77;;;;;;;8.99;100.00;101753.05;1608124;89;21082;-72
2021/10/08 07:40:11;;;;;;;53.43;14.10;;;;;;;9.04;100.00;101744.11;1618522;88;21048;-72
2021/10/08 07:42:38;;;;;;;49.38;10.48;;;;;;;9.12;100.00;101744.39;1610300;87;21592;-72
2021/10/08 07:45:07;;;;;;;53.40;16.67;;;;;;;9.26;100.00;101751.87;1604637;89;21128;-72
2021/10/08 07:47:35;;;;;;;72.12;13.75;;;;;;;9.36;100.00;101744.77;1636792;88;21584;-73
2021/10/08 07:50:02;;;;;;;76.92;13.30;;;;;;;9.36;100.00;101746.13;1619461;87;21553;-74
2021/10/08 07:52:31;;;;;;;97.70;17.05;;;;;;;9.43;100.00;101739.75;1587427;89;21492;-74
2021/10/08 07:54:58;;;;;;;54.55;10.80;;;;;;;9.58;100.00;101743.06;1635732;88;21104;-77
2021/10/08 07:57:25;;;;;;;56.60;14.75;;;;;;;9.69;100.00;101738.52;1611217;88;21096;-74
2021/10/08 07:59:52;;;;;;;64.85;12.35;;;;;;;9.76;100.00;101736.69;1636467;87;21013;-75
2021/10/08 08:02:19;;;;;;;69.42;13.65;;;;;;;9.79;100.00;101735.07;1613116;89;21498;-76
2021/10/08 08:04:48;;;;;;;41.15;9.03;;;;;;;9.79;100.00;101731.90;1641200;87;21046;-76
2021/10/08 08:07:14;;;;;;;51.20;13.00;;;;;;;9.86;100.00;101734.47;1625066;87;21145;-75
2021/10/08 08:09:43;;;;;;;43.42;9.28;;;;;;;9.94;100.00;101739.73;1620533;86;21110;-74
2021/10/08 08:12:10;;;;;;;52.35;10.50;;;;;;;10.05;100.00;101745.11;1579552;90;21085;-75
2021/10/08 08:14:38;;;;;;;44.13;8.58;;;;;;;10.13;100.00;101742.64;1581945;89;21063;-77
2021/10/08 08:17:05;;;;;;;43.28;9.43;;;;;;;10.20;100.00;101746.55;1673571;83;20978;-77
2021/10/08 08:19:33;;;;;;;64.60;10.72;;;;;;;10.26;100.00;101747.38;1729008;82;21144;-78
2021/10/08 08:22:00;;;;;;;60.98;11.08;;;;;;;10.28;100.00;101736.95;1742264;82;21731;-77
2021/10/08 08:24:27;;;;;;;54.95;10.93;;;;;;;10.35;100.00;101746.30;1725911;81;21479;-77
2021/10/08 08:26:54;;;;;;;44.67;9.83;;;;;;;10.36;100.00;101748.03;1725627;82;21022;-77
2021/10/08 08:29:21;;;;;;;28.70;8.18;;;;;;;10.35;100.00;101744.44;1726581;82;21028;-75
2021/10/08 08:31:48;;;;;;;70.97;14.05;;;;;;;10.38;100.00;101746.05;1727259;82;21022;-74
2021/10/08 08:34:15;;;;;;;106.65;18.57;;;;;;;10.45;100.00;101741.84;1730667;82;20978;-76
2021/10/08 08:36:42;;;;;;;70.00;15.08;;;;;;;10.52;100.00;101741.69;1734398;82;21092;-74
2021/10/08 08:39:10;;;;;;;50.48;11.63;;;;;;;10.63;100.00;101748.39;1754765;81;21029;-76
2021/10/08 08:41:39;;;;;;;38.05;9.83;;;;;;;10.73;100.00;101742.20;1745812;81;21034;-79
2021/10/08 08:44:06;;;;;;;49.10;10.50;;;;;;;10.84;100.00;101744.86;1729962;82;20986;-74
2021/10/08 08:46:34;;;;;;;28.12;7.33;;;;;;;10.87;100.00;101727.48;1735098;82;21121;-78
2021/10/08 08:49:01;;;;;;;52.25;8.95;;;;;;;10.87;100.00;101728.84;1724601;83;21519;-76
2021/10/08 08:51:28;;;;;;;44.05;8.38;;;;;;;10.90;100.00;101725.37;1724241;83;21042;-76
2021/10/08 08:53:57;;;;;;;45.15;8.75;;;;;;;10.90;100.00;101734.84;1724278;82;21008;-75
2021/10/08 08:56:26;;;;;;;18.50;5.00;;;;;;;10.95;100.00;101730.41;1723540;82;21458;-73
2021/10/08 08:59:07;;;;;;;24.47;6.20;;;;;;;10.97;100.00;101736.03;1736495;82;21010;-73
2021/10/08 09:02:03;;;;;;;25.30;8.33;;;;;;;11.01;100.00;101730.74;1604519;88;21095;-76
2021/10/08 09:04:32;;;;;;;22.98;6.30;;;;;;;11.09;100.00;101721.95;1544105;91;21061;-73
2021/10/08 09:06:59;;;;;;;61.73;11.68;;;;;;;11.15;97.99;101732.73;1551593;91;21116;-74
2021/10/08 09:09:26;;;;;;;34.23;6.80;;;;;;;11.12;97.85;101728.45;1541602;92;21473;-73
2021/10/08 09:11:55;;;;;;;22.02;5.03;;;;;;;11.14;97.82;101725.62;1537284;93;21097;-76
2021/10/08 09:17:16;;;;;;;15.38;4.83;;;;;;;11.31;91.15;101719.55;1517830;93;21089;-76
2021/10/08 09:20:01;;;;;;;22.42;6.80;;;;;;;11.44;91.37;101715.30;1521911;93;21556;-76
2021/10/08 09:22:40;;;;;;;17.75;6.35;;;;;;;11.61;89.37;101719.70;1516164;94;21097;-75
2021/10/08 09:25:26;;;;;;;46.37;10.35;;;;;;;11.75;88.12;101724.73;1475942;97;21194;-75
2021/10/08 09:28:06;;;;;;;87.70;15.75;;;;;;;11.84;83.91;101728.48;1367726;104;21222;-78
2021/10/08 09:33:21;;;;;;;22.37;8.38;;;;;;;11.66;68.38;101725.57;1312890;108;21695;-76
2021/10/08 09:35:52;;;;;;;27.40;9.30;;;;;;;11.53;71.41;101717.69;1314664;109;21149;-76
2021/10/08 09:38:19;;;;;;;34.95;10.70;;;;;;;11.54;72.96;101722.09;1313404;109;21193;-76
2021/10/08 09:40:51;;;;;;;32.05;12.25;;;;;;;11.57;73.52;101717.76;1319432;107;21160;-75
2021/10/08 09:43:31;;;;;;;28.32;11.95;;;;;;;11.64;72.69;101719.44;1338982;107;21251;-76
2021/10/08 09:46:04;;;;;;;27.93;12.07;;;;;;;11.62;66.53;101716.86;1334009;107;21202;-75
2021/10/08 09:48:43;;;;;;;45.30;13.95;;;;;;;11.50;65.97;101709.31;1338898;107;21153;-73
2021/10/08 09:51:13;;;;;;;36.05;15.85;;;;;;;11.43;66.69;101705.94;1331644;107;21211;-73
2021/10/08 09:53:52;;;;;;;35.68;16.60;;;;;;;11.34;64.91;101713.88;1331252;107;21248;-72
2021/10/08 09:56:40;;;;;;;39.20;18.27;;;;;;;11.27;64.25;101716.77;1331332;105;21588;-74
2021/10/08 09:59:10;;;;;;;42.90;17.45;;;;;;;11.26;62.55;101720.95;1363617;104;21112;-74
2021/10/08 10:01:38;;;;;;;36.93;17.92;;;;;;;11.24;61.06;101713.47;1367925;102;21580;-74
2021/10/08 10:04:08;;;;;;;40.55;19.92;;;;;;;11.22;58.90;101708.19;1403032;99;21279;-74
2021/10/08 10:06:37;;;;;;;37.55;17.65;;;;;;;11.18;58.61;101709.45;1446260;99;21172;-75
2021/10/08 10:09:07;;;;;;;37.60;18.67;;;;;;;11.19;57.99;101718.80;1448701;98;21590;-76
2021/10/08 10:11:34;;;;;;;57.05;21.75;;;;;;;11.23;55.91;101706.36;1423680;99;21190;-74
2021/10/08 10:14:02;;;;;;;48.40;24.23;;;;;;;11.28;53.85;101704.08;1444899;98;21169;-77
2021/10/08 10:16:33;;;;;;;52.70;24.47;;;;;;;11.34;52.00;101700.84;1459745;98;21105;-73
2021/10/08 10:19:03;;;;;;;50.33;25.90;;;;;;;11.43;51.99;101691.89;1475535;97;21096;-75
2021/10/08 10:21:36;;;;;;;59.53;28.80;;;;;;;11.54;50.92;101693.17;1477987;96;21092;-76
2021/10/08 10:24:03;;;;;;;61.15;30.72;;;;;;;11.59;49.21;101697.66;1478007;97;21081;-78
2021/10/08 10:26:33;;;;;;;64.27;33.42;;;;;;;11.64;47.97;101692.34;1487493;95;21168;-76
2021/10/08 10:29:00;;;;;;;79.90;41.88;;;;;;;11.65;47.42;101694.03;1506154;94;21188;-73
2021/10/08 10:31:27;;;;;;;75.60;40.85;;;;;;;11.69;46.65;101696.34;1546705;91;21077;-76
2021/10/08 10:34:01;;;;;;;76.50;39.03;;;;;;;11.73;46.60;101694.22;1616248;89;21486;-75
2021/10/08 10:36:29;;;;;;;69.05;37.95;;;;;;;11.75;45.28;101691.71;1641888;84;20986;-74
2021/10/08 10:39:16;;;;;;;61.80;33.58;;;;;;;11.73;44.99;101693.70;1672212;86;21472;-74
2021/10/08 10:41:48;;;;;;;68.62;36.15;;;;;;;11.72;44.52;101688.42;1676307;84;21555;-74
2021/10/08 10:44:29;;;;;;;62.25;32.20;;;;;;;11.73;44.06;101688.28;1665607;85;20999;-74
2021/10/08 10:47:21;;;;;;;76.28;39.20;;;;;;;11.76;43.76;101684.46;1690330;84;20989;-75
2021/10/08 10:49:57;;;;;;;81.20;43.33;;;;;;;11.75;43.74;101682.23;1583940;90;21039;-74
2021/10/08 10:52:24;;;;;;;129.47;67.05;;;;;;;11.75;44.50;101684.09;1590503;88;21015;-76
2021/10/08 10:54:55;;;;;;;105.50;55.67;;;;;;;11.75;44.70;101678.16;1623763;87;21133;-78
2021/10/08 10:57:31;;;;;;;92.80;50.98;;;;;;;11.71;44.04;101679.45;1618382;87;21047;-75
2021/10/08 11:00:30;;;;;;;74.45;41.28;;;;;;;11.69;43.92;101675.17;1609548;89;21069;-75
2021/10/08 11:03:11;;;;;;;61.30;32.23;;;;;;;11.70;44.62;101679.07;1627659;87;21118;-75
2021/10/08 11:06:00;;;;;;;51.40;27.60;;;;;;;11.79;43.31;101673.32;1628741;88;21179;-75
2021/10/08 11:08:28;;;;;;;46.40;24.45;;;;;;;11.86;43.56;101671.77;1580327;89;21076;-74
2021/10/08 11:11:15;;;;;;;49.85;24.65;;;;;;;11.96;42.83;101678.09;1614840;87;21098;-73
2021/10/08 11:13:43;;;;;;;45.83;23.85;;;;;;;12.05;42.14;101674.20;1619218;87;21088;-75
2021/10/08 11:16:11;;;;;;;44.25;20.75;;;;;;;12.08;41.24;101680.20;1599256;87;21044;-74
2021/10/08 11:18:50;;;;;;;47.50;21.68;;;;;;;12.08;40.78;101675.28;1640324;87;21043;-75
2021/10/08 11:21:55;;;;;;;45.48;21.50;;;;;;;12.09;40.84;101676.97;1639616;87;21072;-75
2021/10/08 11:24:25;;;;;;;38.63;18.95;;;;;;;12.16;41.03;101676.77;1563874;90;21035;-76
2021/10/08 11:27:00;;;;;;;38.58;18.17;;;;;;;12.24;40.25;101673.36;1572907;90;21086;-73
2021/10/08 11:29:30;;;;;;;33.42;18.23;;;;;;;12.22;40.05;101665.37;1578734;90;21626;-82